createdAt,value
2022-09-16T00:02:58.597Z,72.96
2022-09-16T00:07:06.360Z,73.02
2022-09-16T00:11:14.276Z,73.30
2022-09-16T00:15:22.326Z,73.30
2022-09-16T00:19:30.475Z,73.46
2022-09-16T00:23:38.172Z,73.10
2022-09-16T00:27:48.877Z,73.43
2022-09-16T00:31:56.387Z,73.16
2022-09-16T00:36:12.127Z,72.98
2022-09-16T00:40:20.288Z,72.94
2022-09-16T00:44:55.749Z,73.17
2022-09-16T00:49:04.631Z,73.31
2022-09-16T00:53:17.449Z,73.04
2022-09-16T00:57:25.825Z,72.91
2022-09-16T01:01:34.198Z,72.93
2022-09-16T01:05:42.131Z,72.99
2022-09-16T01:09:49.676Z,72.90
2022-09-16T01:14:20.326Z,72.74
2022-09-16T01:18:33.081Z,72.79
2022-09-16T01:22:52.267Z,72.80
2022-09-16T01:27:20.103Z,73.20
2022-09-16T01:31:31.055Z,73.32
2022-09-16T01:35:49.058Z,73.23
2022-09-16T01:40:05.100Z,73.05
2022-09-16T01:44:20.950Z,73.03
2022-09-16T01:48:36.600Z,73.21
2022-09-16T01:52:50.839Z,73.29
2022-09-16T01:57:03.099Z,73.23
2022-09-16T02:01:14.148Z,73.23
2022-09-16T02:05:25.439Z,73.05
2022-09-16T02:09:36.048Z,73.21
2022-09-16T02:13:47.416Z,72.94
2022-09-16T02:17:58.331Z,72.85
2022-09-16T02:22:12.702Z,72.90
2022-09-16T02:26:26.716Z,73.09
2022-09-16T02:30:35.494Z,72.89
2022-09-16T02:34:48.697Z,73.25
2022-09-16T02:38:59.683Z,72.86
2022-09-16T02:43:07.129Z,72.85
2022-09-16T02:47:19.614Z,73.09
2022-09-16T02:51:32.962Z,73.03
2022-09-16T02:55:46.402Z,73.22
2022-09-16T02:59:56.273Z,73.32
2022-09-16T03:04:05.882Z,73.27
2022-09-16T03:08:13.444Z,73.69
2022-09-16T03:12:32.887Z,73.87
2022-09-16T03:16:49.271Z,74.45
2022-09-16T03:21:02.190Z,74.57
2022-09-16T03:25:16.039Z,74.66
2022-09-16T03:29:27.101Z,74.80
2022-09-16T03:33:39.864Z,74.92
2022-09-16T03:37:47.803Z,75.05
2022-09-16T03:41:56.466Z,75.34
2022-09-16T03:46:04.369Z,75.50
2022-09-16T03:50:15.877Z,75.45
2022-09-16T03:54:23.733Z,75.46
2022-09-16T03:58:31.261Z,75.67
2022-09-16T04:02:39.085Z,75.58
2022-09-16T04:06:47.011Z,75.54
2022-09-16T04:11:00.699Z,75.45
2022-09-16T04:15:09.956Z,75.48
2022-09-16T04:19:17.847Z,75.15
2022-09-16T04:23:26.816Z,75.18
2022-09-16T04:27:35.045Z,75.22
2022-09-16T04:31:43.253Z,75.16
2022-09-16T04:35:50.650Z,75.17
2022-09-16T04:40:03.777Z,75.37
2022-09-16T04:44:13.269Z,75.27
2022-09-16T04:48:20.576Z,75.20
2022-09-16T04:52:29.448Z,75.44
2022-09-16T04:56:39.321Z,75.45
2022-09-16T05:00:47.467Z,75.63
2022-09-16T05:04:55.002Z,75.59
2022-09-16T05:09:03.164Z,75.90
2022-09-16T05:13:11.137Z,75.57
2022-09-16T05:17:39.410Z,75.64
2022-09-16T05:21:47.394Z,75.50
2022-09-16T05:25:55.421Z,75.79
2022-09-16T05:30:03.436Z,75.49
2022-09-16T05:34:15.191Z,75.64
2022-09-16T05:38:23.010Z,75.53
2022-09-16T05:42:30.923Z,75.66
2022-09-16T05:46:40.767Z,75.55
2022-09-16T05:50:56.612Z,75.26
2022-09-16T05:55:04.310Z,75.12
2022-09-16T05:59:14.797Z,74.60
2022-09-16T06:03:22.295Z,74.53
2022-09-16T06:07:29.561Z,73.89
2022-09-16T06:11:41.136Z,73.86
2022-09-16T06:15:54.495Z,73.91
2022-09-16T06:20:01.906Z,73.89
2022-09-16T06:24:10.606Z,73.80
2022-09-16T06:28:18.459Z,73.91
2022-09-16T06:32:25.843Z,73.40
2022-09-16T06:36:42.717Z,73.03
2022-09-16T06:40:52.975Z,73.15
2022-09-16T06:45:00.673Z,72.71
2022-09-16T06:49:08.390Z,72.31
2022-09-16T06:53:18.834Z,72.36
2022-09-16T06:57:26.387Z,71.85
2022-09-16T07:01:35.359Z,72.04
2022-09-16T07:05:42.928Z,71.48
2022-09-16T07:09:50.231Z,71.43
2022-09-16T07:13:58.064Z,70.95
2022-09-16T07:18:07.323Z,70.64
2022-09-16T07:22:15.250Z,70.27
2022-09-16T07:26:26.620Z,69.68
2022-09-16T07:30:34.569Z,69.13
2022-09-16T07:34:42.303Z,68.40
2022-09-16T07:38:51.527Z,68.23
2022-09-16T07:42:59.280Z,67.42
2022-09-16T07:47:07.248Z,67.28
2022-09-16T07:51:16.617Z,67.31
2022-09-16T07:55:24.570Z,67.57
2022-09-16T07:59:34.349Z,67.87
2022-09-16T08:03:43.384Z,67.67
2022-09-16T08:07:51.242Z,67.51
2022-09-16T08:12:02.675Z,67.05
2022-09-16T08:16:14.571Z,66.34
2022-09-16T08:20:22.320Z,66.43
2022-09-16T08:24:30.153Z,66.41
2022-09-16T08:28:45.625Z,66.19
2022-09-16T08:33:06.028Z,66.01
2022-09-16T08:37:13.580Z,65.89
2022-09-16T08:42:02.377Z,65.91
2022-09-16T08:46:16.705Z,65.14
2022-09-16T08:50:33.890Z,64.33
2022-09-16T08:54:45.458Z,64.71
2022-09-16T08:58:55.528Z,64.17
2022-09-16T09:03:09.178Z,64.45
2022-09-16T09:07:24.225Z,64.86
2022-09-16T09:11:40.764Z,65.64
2022-09-16T09:15:52.719Z,65.59
2022-09-16T09:20:16.460Z,65.66
2022-09-16T09:24:56.677Z,65.68
2022-09-16T09:29:27.969Z,64.05
2022-09-16T09:33:46.491Z,64.17
2022-09-16T09:38:25.183Z,63.57
2022-09-16T09:42:35.863Z,62.50
2022-09-16T09:46:46.782Z,62.25
2022-09-16T09:50:55.683Z,61.45
2022-09-16T09:55:16.324Z,60.90
2022-09-16T09:59:29.910Z,60.56
2022-09-16T10:03:39.216Z,61.04
2022-09-16T10:07:47.451Z,59.83
2022-09-16T10:11:57.434Z,59.34
2022-09-16T10:16:14.435Z,59.22
2022-09-16T10:20:29.469Z,59.22
2022-09-16T10:24:39.582Z,59.02
2022-09-16T10:28:58.045Z,58.70
2022-09-16T10:33:07.963Z,58.83
2022-09-16T10:37:20.880Z,59.02
2022-09-16T10:41:29.756Z,58.54
2022-09-16T10:45:39.527Z,58.13
2022-09-16T10:49:50.280Z,57.30
2022-09-16T10:53:59.611Z,56.46
2022-09-16T10:58:19.515Z,55.33
2022-09-16T11:02:39.630Z,54.52
2022-09-16T11:06:56.162Z,54.49
2022-09-16T11:11:11.719Z,53.45
2022-09-16T11:15:30.076Z,53.68
2022-09-16T11:19:45.135Z,54.34
2022-09-16T11:24:07.025Z,54.41
2022-09-16T11:28:54.202Z,53.79
2022-09-16T11:33:21.396Z,53.47
2022-09-16T11:37:32.378Z,54.11
2022-09-16T11:41:46.036Z,54.84
2022-09-16T11:45:58.507Z,54.65
2022-09-16T11:50:33.605Z,54.67
2022-09-16T11:54:55.955Z,55.24
2022-09-16T11:59:07.424Z,56.48
2022-09-16T12:03:24.427Z,56.54
2022-09-16T12:07:37.845Z,55.84
2022-09-16T12:11:48.748Z,55.20
2022-09-16T12:15:58.798Z,54.88
2022-09-16T12:20:12.600Z,54.56
2022-09-16T12:24:23.898Z,54.29
2022-09-16T12:28:37.302Z,53.28
2022-09-16T12:32:52.543Z,52.58
2022-09-16T12:37:05.568Z,52.48
2022-09-16T12:41:39.587Z,53.16
2022-09-16T12:46:35.380Z,53.59
2022-09-16T12:50:54.075Z,53.18
2022-09-16T12:55:26.271Z,52.49
2022-09-16T12:59:50.979Z,51.96
2022-09-16T13:04:00.877Z,50.20
2022-09-16T13:08:23.688Z,49.38
2022-09-16T13:12:40.796Z,50.07
2022-09-16T13:16:56.939Z,49.61
2022-09-16T13:21:13.277Z,49.57
2022-09-16T13:25:28.168Z,50.06
2022-09-16T13:29:44.944Z,52.00
2022-09-16T13:34:13.462Z,53.22
2022-09-16T13:38:39.048Z,52.58
2022-09-16T13:42:46.622Z,52.88
2022-09-16T13:46:54.568Z,53.16
2022-09-16T13:51:03.756Z,53.55
2022-09-16T13:55:23.729Z,52.70
2022-09-16T13:59:41.987Z,52.80
2022-09-16T14:03:55.363Z,54.02
2022-09-16T14:08:08.750Z,53.87
2022-09-16T14:12:21.599Z,54.20
2022-09-16T14:16:31.162Z,53.03
2022-09-16T14:20:39.410Z,53.01
2022-09-16T14:24:52.952Z,53.11
2022-09-16T14:29:12.167Z,52.88
2022-09-16T14:33:21.320Z,52.95
2022-09-16T14:37:30.718Z,50.79
2022-09-16T14:41:41.483Z,50.35
2022-09-16T14:45:52.215Z,50.66
2022-09-16T14:50:05.456Z,50.57
2022-09-16T14:54:20.658Z,50.83
2022-09-16T14:58:31.010Z,50.32
2022-09-16T15:02:42.214Z,52.41
2022-09-16T15:06:53.542Z,53.73
2022-09-16T15:11:08.143Z,54.84
2022-09-16T15:15:21.674Z,56.19
2022-09-16T15:19:32.233Z,56.57
2022-09-16T15:23:42.923Z,56.53
2022-09-16T15:27:50.910Z,56.18
2022-09-16T15:32:14.826Z,56.40
2022-09-16T15:36:37.772Z,56.71
2022-09-16T15:40:45.693Z,56.79
2022-09-16T15:44:57.140Z,57.28
2022-09-16T15:49:07.453Z,58.09
2022-09-16T15:53:17.237Z,58.72
2022-09-16T15:57:31.010Z,58.70
2022-09-16T16:01:49.820Z,58.80
2022-09-16T16:06:05.206Z,58.71
2022-09-16T16:10:20.427Z,59.29
2022-09-16T16:14:32.421Z,59.86
2022-09-16T16:18:40.704Z,59.94
2022-09-16T16:22:50.452Z,59.77
2022-09-16T16:26:59.497Z,59.80
2022-09-16T16:31:18.642Z,59.79
2022-09-16T16:35:29.838Z,60.20
2022-09-16T16:39:42.965Z,60.70
2022-09-16T16:43:51.311Z,60.81
2022-09-16T16:47:58.988Z,60.81
2022-09-16T16:52:07.742Z,60.79
2022-09-16T16:56:16.245Z,60.25
2022-09-16T17:00:27.889Z,59.74
2022-09-16T17:04:36.267Z,59.35
2022-09-16T17:08:46.284Z,59.08
2022-09-16T17:12:54.841Z,59.13
2022-09-16T17:17:05.872Z,59.37
2022-09-16T17:21:16.030Z,59.56
2022-09-16T17:25:23.741Z,59.93
2022-09-16T17:29:30.963Z,60.15
2022-09-16T17:33:39.130Z,60.26
2022-09-16T17:37:49.075Z,60.39
2022-09-16T17:41:57.706Z,60.63
2022-09-16T17:46:07.389Z,61.13
2022-09-16T17:50:16.933Z,61.07
2022-09-16T17:54:28.434Z,61.20
2022-09-16T17:58:36.580Z,61.46
2022-09-16T18:02:44.367Z,61.71
2022-09-16T18:06:52.618Z,61.76
2022-09-16T18:11:00.821Z,62.15
2022-09-16T18:15:10.558Z,62.51
2022-09-16T18:19:18.359Z,62.49
2022-09-16T18:23:26.181Z,63.15
2022-09-16T18:27:34.406Z,63.28
2022-09-16T18:31:43.937Z,63.55
2022-09-16T18:35:52.901Z,63.91
2022-09-16T18:40:00.724Z,64.10
2022-09-16T18:44:13.535Z,64.15
2022-09-16T18:48:21.491Z,64.40
2022-09-16T18:52:29.776Z,64.39
2022-09-16T18:56:39.469Z,64.65
2022-09-16T19:00:49.101Z,64.89
2022-09-16T19:04:57.463Z,64.99
2022-09-16T19:09:07.036Z,64.84
2022-09-16T19:13:15.079Z,64.97
2022-09-16T19:17:22.972Z,64.97
2022-09-16T19:21:31.113Z,64.86
2022-09-16T19:25:38.779Z,65.16
2022-09-16T19:29:47.052Z,65.30
2022-09-16T19:33:54.644Z,65.31
2022-09-16T19:38:03.541Z,65.54
2022-09-16T19:42:15.214Z,65.79
2022-09-16T19:46:23.205Z,66.05
2022-09-16T19:50:33.915Z,66.23
2022-09-16T19:54:41.926Z,66.45
2022-09-16T19:58:50.677Z,66.47
2022-09-16T20:02:58.736Z,66.68
2022-09-16T20:07:10.400Z,66.83
2022-09-16T20:11:20.466Z,67.04
2022-09-16T20:15:28.537Z,67.09
2022-09-16T20:19:35.953Z,67.06
2022-09-16T20:23:45.220Z,67.29
2022-09-16T20:27:52.577Z,67.41
2022-09-16T20:32:00.430Z,67.55
2022-09-16T20:36:11.832Z,67.64
2022-09-16T20:40:19.357Z,67.70
2022-09-16T20:44:26.737Z,67.91
2022-09-16T20:48:36.521Z,67.82
2022-09-16T20:52:44.580Z,67.93
2022-09-16T20:56:52.986Z,67.92
2022-09-16T21:01:06.578Z,68.08
2022-09-16T21:05:15.760Z,68.19
2022-09-16T21:09:24.151Z,68.55
2022-09-16T21:13:31.930Z,68.84
2022-09-16T21:17:39.802Z,68.96
2022-09-16T21:21:48.787Z,69.34
2022-09-16T21:25:58.025Z,69.56
2022-09-16T21:30:05.935Z,69.81
2022-09-16T21:34:17.161Z,69.87
2022-09-16T21:38:24.850Z,69.99
2022-09-16T21:42:32.436Z,70.24
2022-09-16T21:46:42.699Z,70.69
2022-09-16T21:50:51.110Z,70.67
2022-09-16T21:55:00.194Z,70.99
2022-09-16T21:59:07.794Z,71.12
2022-09-16T22:03:16.056Z,71.18
2022-09-16T22:07:23.618Z,71.22
2022-09-16T22:11:33.347Z,71.41
2022-09-16T22:15:40.877Z,71.35
2022-09-16T22:19:50.728Z,71.37
2022-09-16T22:24:01.096Z,71.57
2022-09-16T22:28:08.658Z,71.50
2022-09-16T22:32:15.954Z,71.88
2022-09-16T22:36:25.279Z,71.71
2022-09-16T22:40:34.794Z,71.85
2022-09-16T22:44:42.408Z,71.74
2022-09-16T22:48:51.960Z,71.86
2022-09-16T22:52:59.659Z,71.83
2022-09-16T22:57:07.515Z,71.72
2022-09-16T23:01:17.039Z,71.74
2022-09-16T23:05:25.311Z,71.66
2022-09-16T23:09:33.327Z,71.80
2022-09-16T23:13:42.514Z,71.67
2022-09-16T23:17:50.026Z,71.79
2022-09-16T23:21:57.476Z,71.89
2022-09-16T23:26:07.230Z,72.06
2022-09-16T23:30:15.972Z,72.03
2022-09-16T23:34:25.278Z,72.01
2022-09-16T23:38:35.300Z,72.08
2022-09-16T23:42:43.810Z,72.08
2022-09-16T23:46:51.543Z,72.55
2022-09-16T23:50:59.402Z,72.10
2022-09-16T23:55:09.468Z,72.40
2022-09-16T23:59:17.185Z,72.28
